Aguilar, CO

11:28 AM MST on January 26, 2015 (GMT -0700)
Aguilar - Vezzani's House | Change Station
CLOSE
Current Station
Personal Weather Station
Location: Aguilar, CO
Elevation: 6417 ft
Nearby Weather Stations

Elev 6417 ft 37.41 °N, 104.65 °W | Updated 5 seconds ago

Clear
Clear
57.7 °F
Feels Like 57.7 °F
N
1.0
Wind Variable Wind from ESE
Gusts 8.0 mph

Today
High -- | Low -- °F
--% Chance of Precip.
Yesterday
High -- | Low -- °F
Precip. -- in
7:06 AM 5:16 PM
Waxing Crescent, 45% visible
Pressure 30.27 in
Visibility 10.0 miles
Clouds Clear
Dew Point 25 °F
Humidity 28%
Rainfall 0.00 in
Snow Depth Not available.
UV 4 out of 12
Pollen 1.90 out of 12
Air Quality Not available.
Flu Activity Not available.
METAR KTAD 261754Z AUTO 33004KT 10SM CLR 14/M02 A3035 RMK AO2 SLP251 T01441017 10144 20017 51011

More Conditions Fewer Conditions

Pressure 30.27 in
Visibility 10.0 miles
Clouds Clear
Dew Point 25 °F
Humidity 28%
Rainfall 0.00 in
Snow Depth Not available.
UV 4 out of 12
Pollen 1.90 out of 12
Air Quality Not available.
Flu Activity Not available.
METAR KTAD 261754Z AUTO 33004KT 10SM CLR 14/M02 A3035 RMK AO2 SLP251 T01441017 10144 20017 51011

More Conditions Fewer Conditions

10-Day Weather Forecast

Almanac

Astronomy

Jan. 26, 2015 Rise Set
Actual Time
Civil Twilight
Nautical Twilight
Astronomical Twilight
Moon
Length of Visible Light
Length of Day
Tomorrow will be .
, % of the Moon is Illuminated

Today's Extremes

State Highs State Lows

Community

WunderPhotos

Upload Photos

1,790,308 photos uploaded!

WunderBlogs® & News

Nearby

Air Quality

  Air Quality AQ Index Pollutant
Not available.

Snow Depth

Station Depth Elevation

Earthquake Activity

City Distance Mag. Time & Date
Minimum magnitude displayed is 2.5.

Coastal Water Temperatures

Place Temperature

Nearby Weather Stations